Terminal Aerodrome Forecast
Issued by NWS

Home | Current Version | Previous Version | Text Only | Print | Product List | Glossary On
Versions: 1 2 3 4 5 6 7 8 9 10 11 12 13 14 15 16 17 18 19
000
FTUS45 KGJT 272338
TAFEGE
TAF
KEGE 272338Z 2800/2824 30010KT P6SM VCSH BKN090
     FM280300 VRB04KT P6SM VCSH BKN070
     FM280800 VRB04KT P6SM -SHSN BKN025
     FM281100 25006KT 3SM -SHRASN OVC020
     FM281500 VRB04KT 3SM -SHRA OVC030
      AMD LTD TO CLD VIS AND WIND 2805/2813=

USA.gov is the U.S. government's official web portal to all federal, state and local government web resources and services.